sensor_id;sensor_type;location;lat;lon;timestamp;P1;durP1;ratioP1;P2;durP2;ratioP2
5869;SDS011;2961;47.702;9.410;2022-10-31T00:02:22;38.10;;;13.90;;
5869;SDS011;2961;47.702;9.410;2022-10-31T00:04:50;36.70;;;15.00;;
5869;SDS011;2961;47.702;9.410;2022-10-31T00:07:17;35.27;;;16.63;;
5869;SDS011;2961;47.702;9.410;2022-10-31T00:09:44;51.40;;;15.80;;
5869;SDS011;2961;47.702;9.410;2022-10-31T00:12:10;48.13;;;16.40;;
5869;SDS011;2961;47.702;9.410;2022-10-31T00:14:37;44.17;;;16.50;;
5869;SDS011;2961;47.702;9.410;2022-10-31T00:17:04;21.80;;;13.63;;
5869;SDS011;2961;47.702;9.410;2022-10-31T00:19:30;34.47;;;15.10;;
5869;SDS011;2961;47.702;9.410;2022-10-31T00:21:59;36.33;;;15.90;;
5869;SDS011;2961;47.702;9.410;2022-10-31T00:24:25;26.73;;;14.87;;
5869;SDS011;2961;47.702;9.410;2022-10-31T00:26:52;26.50;;;13.93;;
5869;SDS011;2961;47.702;9.410;2022-10-31T00:29:19;29.47;;;13.97;;
5869;SDS011;2961;47.702;9.410;2022-10-31T00:31:46;19.03;;;12.20;;
5869;SDS011;2961;47.702;9.410;2022-10-31T00:34:12;26.80;;;12.50;;
5869;SDS011;2961;47.702;9.410;2022-10-31T00:36:39;17.27;;;11.97;;
5869;SDS011;2961;47.702;9.410;2022-10-31T00:39:07;20.00;;;12.40;;
5869;SDS011;2961;47.702;9.410;2022-10-31T00:41:34;20.10;;;12.87;;
5869;SDS011;2961;47.702;9.410;2022-10-31T00:44:01;21.40;;;12.50;;
5869;SDS011;2961;47.702;9.410;2022-10-31T00:46:28;23.70;;;13.17;;
5869;SDS011;2961;47.702;9.410;2022-10-31T00:48:54;22.40;;;11.97;;
5869;SDS011;2961;47.702;9.410;2022-10-31T00:51:21;20.97;;;13.13;;
5869;SDS011;2961;47.702;9.410;2022-10-31T00:53:48;28.47;;;15.07;;
5869;SDS011;2961;47.702;9.410;2022-10-31T00:56:16;20.20;;;12.50;;
5869;SDS011;2961;47.702;9.410;2022-10-31T00:58:43;21.33;;;13.80;;
5869;SDS011;2961;47.702;9.410;2022-10-31T01:01:10;19.60;;;12.20;;
5869;SDS011;2961;47.702;9.410;2022-10-31T01:03:36;21.37;;;13.60;;
5869;SDS011;2961;47.702;9.410;2022-10-31T01:06:05;33.90;;;14.73;;
5869;SDS011;2961;47.702;9.410;2022-10-31T01:08:34;21.10;;;13.53;;
5869;SDS011;2961;47.702;9.410;2022-10-31T01:11:02;24.43;;;14.27;;
5869;SDS011;2961;47.702;9.410;2022-10-31T01:13:33;29.60;;;13.50;;
5869;SDS011;2961;47.702;9.410;2022-10-31T01:16:00;26.40;;;13.20;;
5869;SDS011;2961;47.702;9.410;2022-10-31T01:18:28;34.87;;;14.43;;
5869;SDS011;2961;47.702;9.410;2022-10-31T01:20:59;22.53;;;12.90;;
5869;SDS011;2961;47.702;9.410;2022-10-31T01:23:27;18.70;;;12.80;;
5869;SDS011;2961;47.702;9.410;2022-10-31T01:26:04;29.33;;;14.73;;
5869;SDS011;2961;47.702;9.410;2022-10-31T01:28:34;29.80;;;14.63;;
5869;SDS011;2961;47.702;9.410;2022-10-31T01:31:03;25.20;;;12.80;;
5869;SDS011;2961;47.702;9.410;2022-10-31T01:33:31;22.77;;;12.73;;
5869;SDS011;2961;47.702;9.410;2022-10-31T01:35:58;25.67;;;13.43;;
5869;SDS011;2961;47.702;9.410;2022-10-31T01:38:25;27.93;;;14.37;;
5869;SDS011;2961;47.702;9.410;2022-10-31T01:40:53;15.70;;;11.30;;
5869;SDS011;2961;47.702;9.410;2022-10-31T01:43:19;19.43;;;12.20;;
5869;SDS011;2961;47.702;9.410;2022-10-31T01:45:49;19.90;;;12.30;;
5869;SDS011;2961;47.702;9.410;2022-10-31T01:48:20;22.60;;;12.77;;
5869;SDS011;2961;47.702;9.410;2022-10-31T01:50:53;22.00;;;12.77;;
5869;SDS011;2961;47.702;9.410;2022-10-31T01:53:21;39.07;;;14.60;;
5869;SDS011;2961;47.702;9.410;2022-10-31T01:55:49;32.37;;;15.80;;
5869;SDS011;2961;47.702;9.410;2022-10-31T01:58:22;30.07;;;14.40;;
5869;SDS011;2961;47.702;9.410;2022-10-31T02:00:53;30.53;;;13.40;;
5869;SDS011;2961;47.702;9.410;2022-10-31T02:03:24;31.10;;;15.00;;
5869;SDS011;2961;47.702;9.410;2022-10-31T02:05:52;26.50;;;14.70;;
5869;SDS011;2961;47.702;9.410;2022-10-31T02:08:21;25.33;;;13.80;;
5869;SDS011;2961;47.702;9.410;2022-10-31T02:10:52;36.37;;;15.17;;
5869;SDS011;2961;47.702;9.410;2022-10-31T02:13:20;22.97;;;14.57;;
5869;SDS011;2961;47.702;9.410;2022-10-31T02:15:49;26.33;;;14.63;;
5869;SDS011;2961;47.702;9.410;2022-10-31T02:18:19;27.50;;;16.03;;
5869;SDS011;2961;47.702;9.410;2022-10-31T02:20:48;33.40;;;15.63;;
5869;SDS011;2961;47.702;9.410;2022-10-31T02:26:28;25.70;;;15.10;;
5869;SDS011;2961;47.702;9.410;2022-10-31T02:29:28;27.07;;;15.97;;
5869;SDS011;2961;47.702;9.410;2022-10-31T02:32:15;32.03;;;16.83;;
5869;SDS011;2961;47.702;9.410;2022-10-31T02:34:48;42.07;;;17.67;;
5869;SDS011;2961;47.702;9.410;2022-10-31T02:37:24;35.13;;;17.00;;
5869;SDS011;2961;47.702;9.410;2022-10-31T02:39:59;28.97;;;16.97;;
5869;SDS011;2961;47.702;9.410;2022-10-31T02:42:38;36.10;;;15.63;;
5869;SDS011;2961;47.702;9.410;2022-10-31T02:45:10;28.50;;;17.40;;
5869;SDS011;2961;47.702;9.410;2022-10-31T02:47:46;28.93;;;16.60;;
5869;SDS011;2961;47.702;9.410;2022-10-31T02:50:18;44.93;;;18.30;;
5869;SDS011;2961;47.702;9.410;2022-10-31T02:52:50;94.57;;;19.47;;
5869;SDS011;2961;47.702;9.410;2022-10-31T02:58:11;26.20;;;17.20;;
5869;SDS011;2961;47.702;9.410;2022-10-31T03:00:41;29.07;;;18.93;;
5869;SDS011;2961;47.702;9.410;2022-10-31T03:03:20;22.97;;;17.30;;
5869;SDS011;2961;47.702;9.410;2022-10-31T03:05:57;24.83;;;17.60;;
5869;SDS011;2961;47.702;9.410;2022-10-31T03:08:30;32.40;;;19.40;;
5869;SDS011;2961;47.702;9.410;2022-10-31T03:11:02;21.40;;;17.27;;
5869;SDS011;2961;47.702;9.410;2022-10-31T03:13:32;24.23;;;18.60;;
5869;SDS011;2961;47.702;9.410;2022-10-31T03:16:06;26.83;;;20.33;;
5869;SDS011;2961;47.702;9.410;2022-10-31T03:18:39;34.90;;;19.70;;
5869;SDS011;2961;47.702;9.410;2022-10-31T03:21:09;26.60;;;20.77;;
5869;SDS011;2961;47.702;9.410;2022-10-31T03:23:39;22.93;;;19.20;;
5869;SDS011;2961;47.702;9.410;2022-10-31T03:26:08;24.53;;;19.20;;
5869;SDS011;2961;47.702;9.410;2022-10-31T03:28:43;35.00;;;21.70;;
5869;SDS011;2961;47.702;9.410;2022-10-31T03:31:13;27.00;;;19.53;;
5869;SDS011;2961;47.702;9.410;2022-10-31T03:33:45;25.63;;;19.53;;
5869;SDS011;2961;47.702;9.410;2022-10-31T03:36:14;29.87;;;18.37;;
5869;SDS011;2961;47.702;9.410;2022-10-31T03:38:42;25.57;;;17.13;;
5869;SDS011;2961;47.702;9.410;2022-10-31T03:41:13;27.53;;;16.50;;
5869;SDS011;2961;47.702;9.410;2022-10-31T03:43:46;30.07;;;19.53;;
5869;SDS011;2961;47.702;9.410;2022-10-31T03:46:18;37.80;;;20.20;;
5869;SDS011;2961;47.702;9.410;2022-10-31T03:48:47;32.07;;;19.23;;
5869;SDS011;2961;47.702;9.410;2022-10-31T03:51:15;26.93;;;19.20;;
5869;SDS011;2961;47.702;9.410;2022-10-31T03:53:50;26.20;;;19.20;;
5869;SDS011;2961;47.702;9.410;2022-10-31T03:56:22;27.97;;;18.80;;
5869;SDS011;2961;47.702;9.410;2022-10-31T03:58:57;30.07;;;20.33;;
5869;SDS011;2961;47.702;9.410;2022-10-31T04:01:28;28.87;;;21.17;;
5869;SDS011;2961;47.702;9.410;2022-10-31T04:03:59;27.30;;;20.57;;
5869;SDS011;2961;47.702;9.410;2022-10-31T04:06:27;29.80;;;21.47;;
5869;SDS011;2961;47.702;9.410;2022-10-31T04:08:56;49.20;;;24.40;;
5869;SDS011;2961;47.702;9.410;2022-10-31T04:11:27;37.67;;;23.60;;
5869;SDS011;2961;47.702;9.410;2022-10-31T04:13:57;47.73;;;25.17;;
5869;SDS011;2961;47.702;9.410;2022-10-31T04:16:25;34.40;;;24.10;;
5869;SDS011;2961;47.702;9.410;2022-10-31T04:18:53;42.20;;;24.33;;
5869;SDS011;2961;47.702;9.410;2022-10-31T04:21:25;35.93;;;24.17;;
5869;SDS011;2961;47.702;9.410;2022-10-31T04:23:54;35.83;;;23.77;;
5869;SDS011;2961;47.702;9.410;2022-10-31T04:26:21;53.50;;;24.70;;
5869;SDS011;2961;47.702;9.410;2022-10-31T04:28:47;33.33;;;23.30;;
5869;SDS011;2961;47.702;9.410;2022-10-31T04:31:14;34.30;;;24.40;;
5869;SDS011;2961;47.702;9.410;2022-10-31T04:33:41;33.07;;;23.83;;
5869;SDS011;2961;47.702;9.410;2022-10-31T04:36:08;34.40;;;22.67;;
5869;SDS011;2961;47.702;9.410;2022-10-31T04:38:36;33.57;;;24.37;;
5869;SDS011;2961;47.702;9.410;2022-10-31T04:41:03;44.57;;;24.50;;
5869;SDS011;2961;47.702;9.410;2022-10-31T04:43:30;46.20;;;23.27;;
5869;SDS011;2961;47.702;9.410;2022-10-31T04:45:57;30.60;;;23.93;;
5869;SDS011;2961;47.702;9.410;2022-10-31T04:48:24;27.47;;;22.47;;
5869;SDS011;2961;47.702;9.410;2022-10-31T04:50:51;34.10;;;24.83;;
5869;SDS011;2961;47.702;9.410;2022-10-31T04:53:17;36.50;;;23.17;;
5869;SDS011;2961;47.702;9.410;2022-10-31T04:55:45;34.60;;;22.67;;
5869;SDS011;2961;47.702;9.410;2022-10-31T04:58:12;28.60;;;24.20;;
5869;SDS011;2961;47.702;9.410;2022-10-31T05:00:39;29.60;;;22.30;;
5869;SDS011;2961;47.702;9.410;2022-10-31T05:03:06;30.50;;;23.07;;
5869;SDS011;2961;47.702;9.410;2022-10-31T05:05:32;25.60;;;20.10;;
5869;SDS011;2961;47.702;9.410;2022-10-31T05:07:59;25.43;;;19.23;;
5869;SDS011;2961;47.702;9.410;2022-10-31T05:10:28;24.37;;;19.47;;
5869;SDS011;2961;47.702;9.410;2022-10-31T05:12:57;27.40;;;19.23;;
5869;SDS011;2961;47.702;9.410;2022-10-31T05:15:25;28.93;;;20.47;;
5869;SDS011;2961;47.702;9.410;2022-10-31T05:17:53;30.83;;;20.50;;
5869;SDS011;2961;47.702;9.410;2022-10-31T05:20:21;26.40;;;21.13;;
5869;SDS011;2961;47.702;9.410;2022-10-31T05:22:51;21.80;;;18.80;;
5869;SDS011;2961;47.702;9.410;2022-10-31T05:25:19;46.70;;;22.70;;
5869;SDS011;2961;47.702;9.410;2022-10-31T05:27:48;31.67;;;23.30;;
5869;SDS011;2961;47.702;9.410;2022-10-31T05:30:18;32.27;;;23.03;;
5869;SDS011;2961;47.702;9.410;2022-10-31T05:32:47;57.87;;;22.60;;
5869;SDS011;2961;47.702;9.410;2022-10-31T05:35:15;44.33;;;23.10;;
5869;SDS011;2961;47.702;9.410;2022-10-31T05:37:43;32.57;;;23.83;;
5869;SDS011;2961;47.702;9.410;2022-10-31T05:40:11;27.77;;;20.60;;
5869;SDS011;2961;47.702;9.410;2022-10-31T05:42:38;31.30;;;21.30;;
5869;SDS011;2961;47.702;9.410;2022-10-31T05:45:06;59.03;;;22.90;;
5869;SDS011;2961;47.702;9.410;2022-10-31T05:47:36;36.77;;;22.60;;
5869;SDS011;2961;47.702;9.410;2022-10-31T05:50:03;33.00;;;23.90;;
5869;SDS011;2961;47.702;9.410;2022-10-31T05:52:30;33.03;;;23.60;;
5869;SDS011;2961;47.702;9.410;2022-10-31T05:54:57;44.73;;;20.30;;
5869;SDS011;2961;47.702;9.410;2022-10-31T05:57:24;35.60;;;20.27;;
5869;SDS011;2961;47.702;9.410;2022-10-31T05:59:51;31.93;;;22.40;;
5869;SDS011;2961;47.702;9.410;2022-10-31T06:02:18;74.90;;;21.27;;
5869;SDS011;2961;47.702;9.410;2022-10-31T06:04:46;46.97;;;19.10;;
5869;SDS011;2961;47.702;9.410;2022-10-31T06:07:13;35.00;;;18.00;;
5869;SDS011;2961;47.702;9.410;2022-10-31T06:09:40;44.03;;;18.40;;
5869;SDS011;2961;47.702;9.410;2022-10-31T06:12:07;36.63;;;21.98;;
5869;SDS011;2961;47.702;9.410;2022-10-31T06:14:34;69.27;;;22.90;;
5869;SDS011;2961;47.702;9.410;2022-10-31T06:17:01;40.87;;;15.87;;
5869;SDS011;2961;47.702;9.410;2022-10-31T06:19:28;40.37;;;16.07;;
5869;SDS011;2961;47.702;9.410;2022-10-31T06:21:56;78.07;;;16.40;;
5869;SDS011;2961;47.702;9.410;2022-10-31T06:24:22;138.70;;;16.70;;
5869;SDS011;2961;47.702;9.410;2022-10-31T06:26:49;28.87;;;14.13;;
5869;SDS011;2961;47.702;9.410;2022-10-31T06:29:16;64.70;;;15.40;;
5869;SDS011;2961;47.702;9.410;2022-10-31T06:31:43;20.40;;;14.87;;
5869;SDS011;2961;47.702;9.410;2022-10-31T06:34:09;19.93;;;14.60;;
5869;SDS011;2961;47.702;9.410;2022-10-31T06:36:36;31.03;;;14.50;;
5869;SDS011;2961;47.702;9.410;2022-10-31T06:39:04;18.93;;;15.10;;
5869;SDS011;2961;47.702;9.410;2022-10-31T06:41:31;28.20;;;17.47;;
5869;SDS011;2961;47.702;9.410;2022-10-31T06:43:58;73.57;;;25.67;;
5869;SDS011;2961;47.702;9.410;2022-10-31T06:46:24;47.10;;;24.33;;
5869;SDS011;2961;47.702;9.410;2022-10-31T06:48:51;83.53;;;24.57;;
5869;SDS011;2961;47.702;9.410;2022-10-31T06:51:18;54.57;;;19.43;;
5869;SDS011;2961;47.702;9.410;2022-10-31T06:53:45;55.53;;;16.80;;
5869;SDS011;2961;47.702;9.410;2022-10-31T06:56:13;24.77;;;14.50;;
5869;SDS011;2961;47.702;9.410;2022-10-31T06:58:39;32.77;;;14.50;;
5869;SDS011;2961;47.702;9.410;2022-10-31T07:01:06;78.40;;;15.40;;
5869;SDS011;2961;47.702;9.410;2022-10-31T07:03:33;46.27;;;14.70;;
5869;SDS011;2961;47.702;9.410;2022-10-31T07:06:00;29.20;;;14.40;;
5869;SDS011;2961;47.702;9.410;2022-10-31T07:08:27;69.93;;;14.93;;
5869;SDS011;2961;47.702;9.410;2022-10-31T07:10:55;19.77;;;14.23;;
5869;SDS011;2961;47.702;9.410;2022-10-31T07:13:24;42.23;;;16.07;;
5869;SDS011;2961;47.702;9.410;2022-10-31T07:15:51;24.20;;;16.43;;
5869;SDS011;2961;47.702;9.410;2022-10-31T07:18:18;26.50;;;17.30;;
5869;SDS011;2961;47.702;9.410;2022-10-31T07:20:46;17.23;;;15.00;;
5869;SDS011;2961;47.702;9.410;2022-10-31T07:23:13;55.60;;;17.43;;
5869;SDS011;2961;47.702;9.410;2022-10-31T07:25:40;49.13;;;18.03;;
5869;SDS011;2961;47.702;9.410;2022-10-31T07:28:07;25.17;;;15.20;;
5869;SDS011;2961;47.702;9.410;2022-10-31T07:30:36;39.10;;;15.17;;
5869;SDS011;2961;47.702;9.410;2022-10-31T07:33:03;40.30;;;15.87;;
5869;SDS011;2961;47.702;9.410;2022-10-31T07:35:31;26.33;;;15.40;;
5869;SDS011;2961;47.702;9.410;2022-10-31T07:38:06;38.23;;;14.80;;
5869;SDS011;2961;47.702;9.410;2022-10-31T07:40:33;14.60;;;13.20;;
5869;SDS011;2961;47.702;9.410;2022-10-31T07:43:00;20.83;;;13.00;;
5869;SDS011;2961;47.702;9.410;2022-10-31T07:45:27;55.20;;;14.20;;
5869;SDS011;2961;47.702;9.410;2022-10-31T07:47:55;44.87;;;12.73;;
5869;SDS011;2961;47.702;9.410;2022-10-31T07:50:22;17.80;;;13.23;;
5869;SDS011;2961;47.702;9.410;2022-10-31T07:52:57;42.97;;;13.63;;
5869;SDS011;2961;47.702;9.410;2022-10-31T07:55:24;14.80;;;12.90;;
5869;SDS011;2961;47.702;9.410;2022-10-31T07:57:55;19.77;;;11.63;;
5869;SDS011;2961;47.702;9.410;2022-10-31T08:00:22;14.30;;;10.87;;
5869;SDS011;2961;47.702;9.410;2022-10-31T08:02:57;54.27;;;12.67;;
5869;SDS011;2961;47.702;9.410;2022-10-31T08:05:24;26.67;;;12.33;;
5869;SDS011;2961;47.702;9.410;2022-10-31T08:07:51;14.43;;;11.20;;
5869;SDS011;2961;47.702;9.410;2022-10-31T08:10:18;31.83;;;11.27;;
5869;SDS011;2961;47.702;9.410;2022-10-31T08:12:44;16.50;;;13.20;;
5869;SDS011;2961;47.702;9.410;2022-10-31T08:15:11;15.53;;;12.70;;
5869;SDS011;2961;47.702;9.410;2022-10-31T08:17:38;45.80;;;12.63;;
5869;SDS011;2961;47.702;9.410;2022-10-31T08:20:07;23.58;;;13.00;;
5869;SDS011;2961;47.702;9.410;2022-10-31T08:22:35;20.10;;;11.57;;
5869;SDS011;2961;47.702;9.410;2022-10-31T08:25:03;15.20;;;11.60;;
5869;SDS011;2961;47.702;9.410;2022-10-31T08:27:30;15.37;;;11.40;;
5869;SDS011;2961;47.702;9.410;2022-10-31T08:29:57;58.17;;;12.17;;
5869;SDS011;2961;47.702;9.410;2022-10-31T08:32:24;22.70;;;11.13;;
5869;SDS011;2961;47.702;9.410;2022-10-31T08:34:51;28.50;;;12.90;;
5869;SDS011;2961;47.702;9.410;2022-10-31T08:37:19;25.13;;;13.95;;
5869;SDS011;2961;47.702;9.410;2022-10-31T08:39:46;46.30;;;15.40;;
5869;SDS011;2961;47.702;9.410;2022-10-31T08:42:12;32.97;;;12.20;;
5869;SDS011;2961;47.702;9.410;2022-10-31T08:44:40;53.83;;;12.00;;
5869;SDS011;2961;47.702;9.410;2022-10-31T08:47:06;28.43;;;10.57;;
5869;SDS011;2961;47.702;9.410;2022-10-31T08:49:33;14.03;;;10.40;;
5869;SDS011;2961;47.702;9.410;2022-10-31T08:52:00;22.23;;;10.83;;
5869;SDS011;2961;47.702;9.410;2022-10-31T08:54:28;18.97;;;12.43;;
5869;SDS011;2961;47.702;9.410;2022-10-31T08:56:55;13.03;;;11.63;;
5869;SDS011;2961;47.702;9.410;2022-10-31T08:59:22;15.83;;;11.50;;
5869;SDS011;2961;47.702;9.410;2022-10-31T09:01:49;14.87;;;11.40;;
5869;SDS011;2961;47.702;9.410;2022-10-31T09:04:15;61.63;;;13.40;;
5869;SDS011;2961;47.702;9.410;2022-10-31T09:06:42;17.67;;;9.47;;
5869;SDS011;2961;47.702;9.410;2022-10-31T09:09:09;24.93;;;9.47;;
5869;SDS011;2961;47.702;9.410;2022-10-31T09:11:37;92.87;;;10.20;;
5869;SDS011;2961;47.702;9.410;2022-10-31T09:14:04;31.33;;;10.03;;
5869;SDS011;2961;47.702;9.410;2022-10-31T09:16:32;22.23;;;9.17;;
5869;SDS011;2961;47.702;9.410;2022-10-31T09:18:58;24.87;;;10.73;;
5869;SDS011;2961;47.702;9.410;2022-10-31T09:21:25;46.37;;;10.53;;
5869;SDS011;2961;47.702;9.410;2022-10-31T09:23:52;42.70;;;10.97;;
5869;SDS011;2961;47.702;9.410;2022-10-31T09:26:19;39.03;;;10.90;;
5869;SDS011;2961;47.702;9.410;2022-10-31T09:28:48;28.27;;;10.23;;
5869;SDS011;2961;47.702;9.410;2022-10-31T09:31:14;28.40;;;12.03;;
5869;SDS011;2961;47.702;9.410;2022-10-31T09:33:41;35.90;;;11.80;;
5869;SDS011;2961;47.702;9.410;2022-10-31T09:36:08;73.27;;;14.67;;
5869;SDS011;2961;47.702;9.410;2022-10-31T09:38:35;79.30;;;13.43;;
5869;SDS011;2961;47.702;9.410;2022-10-31T09:41:04;66.07;;;16.13;;
5869;SDS011;2961;47.702;9.410;2022-10-31T09:43:43;50.97;;;13.40;;
5869;SDS011;2961;47.702;9.410;2022-10-31T09:46:22;23.07;;;11.93;;
5869;SDS011;2961;47.702;9.410;2022-10-31T09:48:59;39.03;;;14.43;;
5869;SDS011;2961;47.702;9.410;2022-10-31T09:51:39;18.03;;;11.87;;
5869;SDS011;2961;47.702;9.410;2022-10-31T09:54:10;27.73;;;14.20;;
5869;SDS011;2961;47.702;9.410;2022-10-31T09:56:41;31.67;;;14.10;;
5869;SDS011;2961;47.702;9.410;2022-10-31T09:59:12;26.93;;;14.73;;
5869;SDS011;2961;47.702;9.410;2022-10-31T10:01:50;13.23;;;11.87;;
5869;SDS011;2961;47.702;9.410;2022-10-31T10:04:30;25.13;;;11.57;;
5869;SDS011;2961;47.702;9.410;2022-10-31T10:07:01;47.40;;;14.80;;
5869;SDS011;2961;47.702;9.410;2022-10-31T10:09:40;52.67;;;15.83;;
5869;SDS011;2961;47.702;9.410;2022-10-31T10:12:08;29.60;;;15.00;;
5869;SDS011;2961;47.702;9.410;2022-10-31T10:14:56;23.97;;;16.70;;
5869;SDS011;2961;47.702;9.410;2022-10-31T10:17:35;21.17;;;14.70;;
5869;SDS011;2961;47.702;9.410;2022-10-31T10:20:17;32.23;;;15.30;;
5869;SDS011;2961;47.702;9.410;2022-10-31T10:22:52;23.27;;;14.03;;
5869;SDS011;2961;47.702;9.410;2022-10-31T10:25:30;18.63;;;14.57;;
5869;SDS011;2961;47.702;9.410;2022-10-31T10:28:07;20.13;;;15.43;;
5869;SDS011;2961;47.702;9.410;2022-10-31T10:30:44;27.93;;;16.40;;
5869;SDS011;2961;47.702;9.410;2022-10-31T10:33:15;25.70;;;14.93;;
5869;SDS011;2961;47.702;9.410;2022-10-31T10:35:46;18.10;;;15.20;;
5869;SDS011;2961;47.702;9.410;2022-10-31T10:38:19;23.17;;;15.27;;
5869;SDS011;2961;47.702;9.410;2022-10-31T10:40:52;16.33;;;14.63;;
5869;SDS011;2961;47.702;9.410;2022-10-31T10:43:22;39.87;;;15.20;;
5869;SDS011;2961;47.702;9.410;2022-10-31T10:45:52;24.30;;;15.77;;
5869;SDS011;2961;47.702;9.410;2022-10-31T10:48:43;20.00;;;15.73;;
5869;SDS011;2961;47.702;9.410;2022-10-31T10:51:21;20.80;;;15.33;;
5869;SDS011;2961;47.702;9.410;2022-10-31T10:53:55;17.43;;;14.70;;
5869;SDS011;2961;47.702;9.410;2022-10-31T10:56:50;19.97;;;14.80;;
5869;SDS011;2961;47.702;9.410;2022-10-31T10:59:23;16.50;;;13.80;;
5869;SDS011;2961;47.702;9.410;2022-10-31T11:01:51;17.00;;;15.20;;
5869;SDS011;2961;47.702;9.410;2022-10-31T11:04:23;22.77;;;17.30;;
5869;SDS011;2961;47.702;9.410;2022-10-31T11:07:00;26.80;;;15.93;;
5869;SDS011;2961;47.702;9.410;2022-10-31T11:09:29;21.53;;;15.40;;
5869;SDS011;2961;47.702;9.410;2022-10-31T11:11:56;22.33;;;16.20;;
5869;SDS011;2961;47.702;9.410;2022-10-31T11:14:24;20.00;;;16.90;;
5869;SDS011;2961;47.702;9.410;2022-10-31T11:16:55;22.80;;;17.27;;
5869;SDS011;2961;47.702;9.410;2022-10-31T11:19:33;20.90;;;15.93;;
5869;SDS011;2961;47.702;9.410;2022-10-31T11:22:05;21.97;;;15.80;;
5869;SDS011;2961;47.702;9.410;2022-10-31T11:24:35;21.60;;;16.83;;
5869;SDS011;2961;47.702;9.410;2022-10-31T11:27:09;20.40;;;17.00;;
5869;SDS011;2961;47.702;9.410;2022-10-31T11:29:40;18.97;;;16.33;;
5869;SDS011;2961;47.702;9.410;2022-10-31T11:32:14;27.00;;;17.63;;
5869;SDS011;2961;47.702;9.410;2022-10-31T11:34:45;21.07;;;15.70;;
5869;SDS011;2961;47.702;9.410;2022-10-31T11:37:16;24.97;;;18.07;;
5869;SDS011;2961;47.702;9.410;2022-10-31T11:39:46;21.53;;;15.20;;
5869;SDS011;2961;47.702;9.410;2022-10-31T11:42:18;22.90;;;17.73;;
5869;SDS011;2961;47.702;9.410;2022-10-31T11:44:47;22.77;;;16.87;;
5869;SDS011;2961;47.702;9.410;2022-10-31T11:47:17;22.63;;;16.60;;
5869;SDS011;2961;47.702;9.410;2022-10-31T11:49:49;26.37;;;18.70;;
5869;SDS011;2961;47.702;9.410;2022-10-31T11:52:18;28.30;;;20.23;;
5869;SDS011;2961;47.702;9.410;2022-10-31T11:54:48;23.20;;;18.40;;
5869;SDS011;2961;47.702;9.410;2022-10-31T11:57:24;32.83;;;19.90;;
5869;SDS011;2961;47.702;9.410;2022-10-31T11:59:52;27.80;;;19.43;;
5869;SDS011;2961;47.702;9.410;2022-10-31T12:02:22;30.93;;;20.13;;
5869;SDS011;2961;47.702;9.410;2022-10-31T12:04:51;25.17;;;17.90;;
5869;SDS011;2961;47.702;9.410;2022-10-31T12:07:26;29.67;;;18.47;;
5869;SDS011;2961;47.702;9.410;2022-10-31T12:09:53;29.50;;;20.73;;
5869;SDS011;2961;47.702;9.410;2022-10-31T12:12:29;25.50;;;19.90;;
5869;SDS011;2961;47.702;9.410;2022-10-31T12:15:20;27.35;;;20.70;;
5869;SDS011;2961;47.702;9.410;2022-10-31T12:17:57;31.13;;;21.70;;
5869;SDS011;2961;47.702;9.410;2022-10-31T12:20:45;21.77;;;16.90;;
5869;SDS011;2961;47.702;9.410;2022-10-31T12:23:22;25.80;;;18.40;;
5869;SDS011;2961;47.702;9.410;2022-10-31T12:26:06;23.50;;;19.10;;
5869;SDS011;2961;47.702;9.410;2022-10-31T12:28:45;32.60;;;17.57;;
5869;SDS011;2961;47.702;9.410;2022-10-31T12:31:34;26.77;;;16.03;;
5869;SDS011;2961;47.702;9.410;2022-10-31T12:34:27;18.57;;;15.00;;
5869;SDS011;2961;47.702;9.410;2022-10-31T12:37:06;16.77;;;13.53;;
5869;SDS011;2961;47.702;9.410;2022-10-31T12:39:40;20.60;;;17.07;;
5869;SDS011;2961;47.702;9.410;2022-10-31T12:42:16;25.10;;;18.93;;
5869;SDS011;2961;47.702;9.410;2022-10-31T12:44:52;25.70;;;19.53;;
5869;SDS011;2961;47.702;9.410;2022-10-31T12:50:25;28.83;;;20.27;;
5869;SDS011;2961;47.702;9.410;2022-10-31T12:53:00;22.00;;;17.77;;
5869;SDS011;2961;47.702;9.410;2022-10-31T12:55:47;23.33;;;17.67;;
5869;SDS011;2961;47.702;9.410;2022-10-31T12:58:23;24.03;;;17.50;;
5869;SDS011;2961;47.702;9.410;2022-10-31T13:00:56;25.70;;;20.40;;
5869;SDS011;2961;47.702;9.410;2022-10-31T13:03:30;25.57;;;18.60;;
5869;SDS011;2961;47.702;9.410;2022-10-31T13:06:05;20.07;;;16.77;;
5869;SDS011;2961;47.702;9.410;2022-10-31T13:08:38;34.70;;;19.53;;
5869;SDS011;2961;47.702;9.410;2022-10-31T13:11:09;21.30;;;16.70;;
5869;SDS011;2961;47.702;9.410;2022-10-31T13:13:58;26.10;;;18.27;;
5869;SDS011;2961;47.702;9.410;2022-10-31T13:16:29;25.30;;;19.60;;
5869;SDS011;2961;47.702;9.410;2022-10-31T13:19:01;29.83;;;17.60;;
5869;SDS011;2961;47.702;9.410;2022-10-31T13:21:37;24.20;;;19.57;;
5869;SDS011;2961;47.702;9.410;2022-10-31T13:24:09;30.50;;;20.40;;
5869;SDS011;2961;47.702;9.410;2022-10-31T13:26:43;27.50;;;18.73;;
5869;SDS011;2961;47.702;9.410;2022-10-31T13:29:15;24.37;;;19.60;;
5869;SDS011;2961;47.702;9.410;2022-10-31T13:31:46;28.40;;;19.23;;
5869;SDS011;2961;47.702;9.410;2022-10-31T13:34:18;28.83;;;20.37;;
5869;SDS011;2961;47.702;9.410;2022-10-31T13:36:54;29.83;;;20.00;;
5869;SDS011;2961;47.702;9.410;2022-10-31T13:39:30;31.50;;;21.13;;
5869;SDS011;2961;47.702;9.410;2022-10-31T13:42:10;23.40;;;18.00;;
5869;SDS011;2961;47.702;9.410;2022-10-31T13:44:40;24.07;;;17.57;;
5869;SDS011;2961;47.702;9.410;2022-10-31T13:47:20;29.17;;;19.73;;
5869;SDS011;2961;47.702;9.410;2022-10-31T13:49:49;30.08;;;21.65;;
5869;SDS011;2961;47.702;9.410;2022-10-31T13:52:22;42.20;;;22.77;;
5869;SDS011;2961;47.702;9.410;2022-10-31T13:54:51;29.30;;;20.50;;
5869;SDS011;2961;47.702;9.410;2022-10-31T13:57:23;27.08;;;21.92;;
5869;SDS011;2961;47.702;9.410;2022-10-31T13:59:56;28.93;;;21.00;;
5869;SDS011;2961;47.702;9.410;2022-10-31T14:02:27;28.53;;;20.40;;
5869;SDS011;2961;47.702;9.410;2022-10-31T14:04:56;27.27;;;22.33;;
5869;SDS011;2961;47.702;9.410;2022-10-31T14:07:27;27.10;;;21.80;;
5869;SDS011;2961;47.702;9.410;2022-10-31T14:09:56;32.67;;;23.77;;
5869;SDS011;2961;47.702;9.410;2022-10-31T14:12:27;31.38;;;24.27;;
5869;SDS011;2961;47.702;9.410;2022-10-31T14:14:58;31.10;;;23.20;;
5869;SDS011;2961;47.702;9.410;2022-10-31T14:17:29;29.57;;;22.73;;
5869;SDS011;2961;47.702;9.410;2022-10-31T14:22:52;34.77;;;23.43;;
5869;SDS011;2961;47.702;9.410;2022-10-31T14:25:25;33.37;;;23.03;;
5869;SDS011;2961;47.702;9.410;2022-10-31T14:27:54;35.70;;;24.20;;
5869;SDS011;2961;47.702;9.410;2022-10-31T14:30:22;37.43;;;25.17;;
5869;SDS011;2961;47.702;9.410;2022-10-31T14:32:52;33.50;;;24.23;;
5869;SDS011;2961;47.702;9.410;2022-10-31T14:35:21;34.90;;;25.23;;
5869;SDS011;2961;47.702;9.410;2022-10-31T14:38:02;39.70;;;26.20;;
5869;SDS011;2961;47.702;9.410;2022-10-31T14:40:41;36.73;;;27.40;;
5869;SDS011;2961;47.702;9.410;2022-10-31T14:43:37;43.93;;;28.20;;
5869;SDS011;2961;47.702;9.410;2022-10-31T14:46:18;45.13;;;29.60;;
5869;SDS011;2961;47.702;9.410;2022-10-31T14:49:00;35.47;;;26.07;;
5869;SDS011;2961;47.702;9.410;2022-10-31T14:51:38;43.70;;;27.23;;
5869;SDS011;2961;47.702;9.410;2022-10-31T14:54:10;46.80;;;31.97;;
5869;SDS011;2961;47.702;9.410;2022-10-31T14:56:43;44.73;;;29.73;;
5869;SDS011;2961;47.702;9.410;2022-10-31T14:59:13;44.57;;;30.10;;
5869;SDS011;2961;47.702;9.410;2022-10-31T15:01:48;50.97;;;34.33;;
5869;SDS011;2961;47.702;9.410;2022-10-31T15:04:22;48.15;;;33.83;;
5869;SDS011;2961;47.702;9.410;2022-10-31T15:06:51;46.77;;;30.83;;
5869;SDS011;2961;47.702;9.410;2022-10-31T15:09:26;50.03;;;32.70;;
5869;SDS011;2961;47.702;9.410;2022-10-31T15:11:54;61.90;;;31.10;;
5869;SDS011;2961;47.702;9.410;2022-10-31T15:14:22;52.30;;;32.03;;
5869;SDS011;2961;47.702;9.410;2022-10-31T15:16:51;58.15;;;36.50;;
5869;SDS011;2961;47.702;9.410;2022-10-31T15:19:20;62.13;;;32.10;;
5869;SDS011;2961;47.702;9.410;2022-10-31T15:21:49;88.67;;;34.07;;